Terminal Aerodrome Forecast
Issued by NWS Buffalo, NY

Current Version | Previous Version | Text Only | Print | Product List | Glossary On
Versions: 1 2 3 4 5 6 7 8 9 10 11 12 13 14 15 16 17 18 19 20 21 22 23 24 25 26
000
FTUS41 KBUF 140300 AAA
TAFROC
TAF AMD
KROC 140314Z 1403/1424 22005KT P6SM SCT050 SCT250
     FM140500 24005KT P6SM BKN050
     FM140800 VRB03KT P6SM SCT050
     FM141600 07004KT P6SM SCT050 BKN250=

USA.gov is the U.S. government's official web portal to all federal, state and local government web resources and services.